createdAt,value
2022-08-05T00:01:35.648Z,100730.25
2022-08-05T00:04:03.504Z,100728.56
2022-08-05T00:06:33.431Z,100733.97
2022-08-05T00:09:04.219Z,100739.38
2022-08-05T00:11:48.505Z,100740.44
2022-08-05T00:14:27.605Z,100743.13
2022-08-05T00:16:55.923Z,100742.69
2022-08-05T00:19:23.245Z,100746.41
2022-08-05T00:21:52.575Z,100754.31
2022-08-05T00:24:24.842Z,100751.19
2022-08-05T00:26:57.393Z,100747.25
2022-08-05T00:29:25.375Z,100718.41
2022-08-05T00:32:12.467Z,100733.09
2022-08-05T00:34:54.616Z,100730.91
2022-08-05T00:37:35.733Z,100741.78
2022-08-05T00:40:14.380Z,100729.03
2022-08-05T00:42:44.558Z,100750.72
2022-08-05T00:45:15.710Z,100734.00
2022-08-05T00:47:56.461Z,100730.66
2022-08-05T00:50:28.705Z,100746.53
2022-08-05T00:52:55.491Z,100742.19
2022-08-05T00:55:23.307Z,100722.28
2022-08-05T00:58:11.333Z,100745.06
2022-08-05T01:00:39.526Z,100745.06
2022-08-05T01:03:07.657Z,100745.25
2022-08-05T01:05:35.103Z,100744.41
2022-08-05T01:08:41.991Z,100749.19
2022-08-05T01:11:02.634Z,100749.19
2022-08-05T01:13:57.811Z,100729.38
2022-08-05T01:16:37.625Z,100732.13
2022-08-05T01:19:36.821Z,100741.47
2022-08-05T01:22:15.637Z,100736.06
2022-08-05T01:24:45.365Z,100748.94
2022-08-05T01:27:59.875Z,100749.13
2022-08-05T01:30:34.496Z,100744.53
2022-08-05T01:33:06.216Z,100764.50
2022-08-05T01:35:52.125Z,100750.34
2022-08-05T01:38:26.798Z,100728.59
2022-08-05T01:40:57.319Z,100754.44
2022-08-05T01:43:24.690Z,100760.50
2022-08-05T01:45:56.593Z,100767.78
2022-08-05T01:48:25.842Z,100761.50
2022-08-05T01:50:56.299Z,100763.38
2022-08-05T01:53:54.483Z,100760.88
2022-08-05T01:56:13.996Z,100766.28
2022-08-05T01:59:05.038Z,100757.50
2022-08-05T02:01:39.761Z,100752.97
2022-08-05T02:04:10.336Z,100728.47
2022-08-05T02:06:38.919Z,100749.63
2022-08-05T02:09:06.861Z,100756.91
2022-08-05T02:11:48.177Z,100758.75
2022-08-05T02:14:31.932Z,100759.78
2022-08-05T02:17:06.765Z,100758.09
2022-08-05T02:19:47.111Z,100762.66
2022-08-05T02:22:40.161Z,100767.25
2022-08-05T02:25:18.471Z,100782.63
2022-08-05T02:27:57.991Z,100767.88
2022-08-05T02:30:32.170Z,100787.53
2022-08-05T02:33:02.699Z,100790.03
2022-08-05T02:35:33.154Z,100780.81
2022-08-05T02:38:05.126Z,100807.47
2022-08-05T02:40:37.460Z,100792.09
2022-08-05T02:43:07.304Z,100788.75
2022-08-05T02:45:52.108Z,100786.03
2022-08-05T02:48:29.204Z,100778.13
2022-08-05T02:50:59.867Z,100775.59
2022-08-05T02:53:28.533Z,100746.59
2022-08-05T02:56:03.354Z,100757.56
2022-08-05T02:58:33.612Z,100767.88
2022-08-05T03:01:02.253Z,100766.22
2022-08-05T03:03:34.282Z,100753.72
2022-08-05T03:06:53.703Z,100749.56
2022-08-05T03:09:05.271Z,100744.16
2022-08-05T03:11:54.330Z,100627.84
2022-08-05T03:14:20.811Z,100723.69
2022-08-05T03:16:47.642Z,100729.34
2022-08-05T03:19:20.278Z,100715.75
2022-08-05T03:22:00.815Z,100706.75
2022-08-05T03:24:30.040Z,100733.28
2022-08-05T03:27:00.288Z,100718.28
2022-08-05T03:29:45.680Z,100704.78
2022-08-05T03:32:15.468Z,100704.13
2022-08-05T03:34:50.659Z,100703.19
2022-08-05T03:37:18.910Z,100702.19
2022-08-05T03:39:59.006Z,100699.94
2022-08-05T03:42:29.190Z,100708.25
2022-08-05T03:44:58.504Z,100711.13
2022-08-05T03:47:25.355Z,100708.81
2022-08-05T03:49:57.344Z,100702.38
2022-08-05T03:52:37.936Z,100683.13
2022-08-05T03:56:04.663Z,100682.81
2022-08-05T03:58:12.690Z,100668.47
2022-08-05T04:00:41.938Z,100678.47
2022-08-05T04:03:15.025Z,100660.56
2022-08-05T04:05:56.706Z,100667.84
2022-08-05T04:08:34.800Z,100666.19
2022-08-05T04:11:04.622Z,100670.94
2022-08-05T04:13:51.088Z,100654.00
2022-08-05T04:16:25.346Z,100659.47
2022-08-05T04:18:57.921Z,100653.25
2022-08-05T04:22:08.235Z,100635.75
2022-08-05T04:24:19.587Z,100633.72
2022-08-05T04:26:50.164Z,100630.16
2022-08-05T04:29:17.026Z,100630.34
2022-08-05T04:31:43.542Z,100633.25
2022-08-05T04:34:18.312Z,100641.34
2022-08-05T04:36:50.097Z,100645.25
2022-08-05T04:39:18.380Z,100666.03
2022-08-05T04:41:45.874Z,100675.97
2022-08-05T04:44:14.711Z,100664.41
2022-08-05T04:46:47.519Z,100685.28
2022-08-05T04:49:15.177Z,100685.16
2022-08-05T04:51:43.563Z,100701.66
2022-08-05T04:54:10.055Z,100703.41
2022-08-05T04:56:38.525Z,100707.06
2022-08-05T04:59:21.737Z,100708.06
2022-08-05T05:02:35.046Z,100716.34
2022-08-05T05:04:44.098Z,100725.28
2022-08-05T05:07:15.802Z,100723.59
2022-08-05T05:09:42.532Z,100738.13
2022-08-05T05:12:10.964Z,100751.63
2022-08-05T05:14:38.155Z,100746.31
2022-08-05T05:17:22.755Z,100764.25
2022-08-05T05:19:50.072Z,100754.50
2022-08-05T05:22:24.169Z,100759.91
2022-08-05T05:24:57.451Z,100752.72
2022-08-05T05:27:45.715Z,100771.72
2022-08-05T05:30:29.371Z,100753.59
2022-08-05T05:33:00.622Z,100753.94
2022-08-05T05:35:29.113Z,100764.16
2022-08-05T05:38:03.083Z,100772.91
2022-08-05T05:40:32.396Z,100760.72
2022-08-05T05:43:02.102Z,100770.22
2022-08-05T05:45:28.877Z,100781.03
2022-08-05T05:48:06.314Z,100782.06
2022-08-05T05:50:41.029Z,100788.28
2022-08-05T05:53:22.484Z,100781.22
2022-08-05T05:55:51.709Z,100723.22
2022-08-05T05:58:32.013Z,100777.66
2022-08-05T06:01:02.210Z,100782.06
2022-08-05T06:04:01.272Z,100785.75
2022-08-05T06:06:31.033Z,100780.38
2022-08-05T06:08:59.989Z,100773.31
2022-08-05T06:11:26.436Z,100774.13
2022-08-05T06:13:56.041Z,100770.59
2022-08-05T06:16:31.487Z,100766.13
2022-08-05T06:19:05.671Z,100784.09
2022-08-05T06:21:35.937Z,100779.06
2022-08-05T06:24:11.619Z,100785.31
2022-08-05T06:26:39.171Z,100770.97
2022-08-05T06:29:25.524Z,100765.28
2022-08-05T06:31:52.989Z,100758.97
2022-08-05T06:34:19.916Z,100772.47
2022-08-05T06:36:57.919Z,100767.34
2022-08-05T06:39:27.250Z,100745.66
2022-08-05T06:41:57.375Z,100769.13
2022-08-05T06:44:25.501Z,100767.44
2022-08-05T06:46:52.542Z,100776.56
2022-08-05T06:49:59.885Z,100773.03
2022-08-05T06:52:07.925Z,100769.47
2022-08-05T06:54:54.356Z,100779.25
2022-08-05T06:57:57.201Z,100770.34
2022-08-05T07:00:09.810Z,100779.44
2022-08-05T07:02:46.310Z,100772.38
2022-08-05T07:05:14.476Z,100782.97
2022-08-05T07:07:48.832Z,100786.69
2022-08-05T07:10:16.417Z,100780.66
2022-08-05T07:13:02.387Z,100793.09
2022-08-05T07:16:01.940Z,100783.19
2022-08-05T07:18:31.922Z,100792.28
2022-08-05T07:20:58.839Z,100791.44
2022-08-05T07:23:31.877Z,100799.53
2022-08-05T07:25:58.328Z,100797.66
2022-08-05T07:28:25.284Z,100798.72
2022-08-05T07:30:52.850Z,100803.25
2022-08-05T07:33:37.002Z,100776.63
2022-08-05T07:36:21.577Z,100807.81
2022-08-05T07:38:49.175Z,100812.19
2022-08-05T07:42:13.712Z,100806.81
2022-08-05T07:44:14.027Z,100803.25
2022-08-05T07:46:48.251Z,100814.03
2022-08-05T07:49:15.321Z,100809.84
2022-08-05T07:51:53.405Z,100818.59
2022-08-05T07:54:31.743Z,100825.88
2022-08-05T07:57:22.410Z,100815.06
2022-08-05T07:59:49.222Z,100820.66
2022-08-05T08:02:17.608Z,100825.69
2022-08-05T08:04:49.174Z,100824.16
2022-08-05T08:07:22.440Z,100826.53
2022-08-05T08:09:52.478Z,100807.22
2022-08-05T08:12:37.142Z,100823.81
2022-08-05T08:15:15.594Z,100829.22
2022-08-05T08:17:52.471Z,100826.41
2022-08-05T08:21:00.666Z,100834.63
2022-08-05T08:23:59.672Z,100818.66
2022-08-05T08:26:00.787Z,100820.00
2022-08-05T08:28:36.610Z,100830.06
2022-08-05T08:31:07.583Z,100828.00
2022-08-05T08:33:38.145Z,100824.47
2022-08-05T08:36:40.213Z,100803.78
2022-08-05T08:38:56.003Z,100815.34
2022-08-05T08:41:52.067Z,100816.84
2022-08-05T08:45:22.114Z,100809.69
2022-08-05T08:47:03.348Z,100820.00
2022-08-05T08:50:14.124Z,100816.31
2022-08-05T08:52:38.704Z,100810.59
2022-08-05T08:55:13.310Z,100817.78
2022-08-05T08:57:48.225Z,100824.84
2022-08-05T09:00:24.622Z,100818.44
2022-08-05T09:02:54.325Z,100820.94
2022-08-05T09:05:38.618Z,100816.41
2022-08-05T09:08:08.170Z,100808.31
2022-08-05T09:10:36.391Z,100802.91
2022-08-05T09:13:06.909Z,100785.75
2022-08-05T09:15:37.158Z,100802.53
2022-08-05T09:18:07.218Z,100800.53
2022-08-05T09:20:38.034Z,100795.13
2022-08-05T09:23:19.901Z,100803.03
2022-08-05T09:26:02.570Z,100800.13
2022-08-05T09:28:33.216Z,100793.72
2022-08-05T09:31:22.856Z,100798.09
2022-08-05T09:34:06.841Z,100791.69
2022-08-05T09:36:53.848Z,100802.28
2022-08-05T09:39:24.483Z,100789.63
2022-08-05T09:42:07.824Z,100799.41
2022-08-05T09:44:35.434Z,100797.53
2022-08-05T09:47:22.500Z,100660.75
2022-08-05T09:50:01.093Z,100793.44
2022-08-05T09:52:33.928Z,100788.91
2022-08-05T09:55:00.406Z,100791.59
2022-08-05T09:57:47.641Z,100785.97
2022-08-05T10:00:17.280Z,100780.59
2022-08-05T10:02:48.560Z,100789.50
2022-08-05T10:05:26.666Z,100791.22
2022-08-05T10:08:36.706Z,100792.88
2022-08-05T10:10:53.916Z,100795.38
2022-08-05T10:13:44.127Z,100801.63
2022-08-05T10:16:41.664Z,100693.16
2022-08-05T10:19:23.821Z,100804.97
2022-08-05T10:22:15.751Z,100792.31
2022-08-05T10:24:56.673Z,100799.41
2022-08-05T10:27:26.210Z,100792.97
2022-08-05T10:31:20.275Z,100791.13
2022-08-05T10:33:01.801Z,100797.16
2022-08-05T10:35:33.977Z,100772.13
2022-08-05T10:38:08.468Z,100791.38
2022-08-05T10:40:44.910Z,100780.31
2022-08-05T10:43:35.939Z,100795.75
2022-08-05T10:46:08.915Z,100794.72
2022-08-05T10:48:52.728Z,100797.25
2022-08-05T10:51:29.313Z,100798.91
2022-08-05T10:54:05.765Z,100795.56
2022-08-05T10:56:57.710Z,100788.50
2022-08-05T11:00:02.451Z,100783.09
2022-08-05T11:02:37.490Z,100781.41
2022-08-05T11:05:09.464Z,100781.22
2022-08-05T11:08:33.696Z,100770.53
2022-08-05T11:11:00.971Z,100784.59
2022-08-05T11:13:55.113Z,100777.50
2022-08-05T11:16:47.740Z,100780.00
2022-08-05T11:20:10.583Z,100788.94
2022-08-05T11:22:49.919Z,100785.41
2022-08-05T11:26:04.486Z,100788.13
2022-08-05T11:28:19.997Z,100794.34
2022-08-05T11:30:55.406Z,100798.09
2022-08-05T11:33:43.728Z,100792.69
2022-08-05T11:36:34.293Z,100770.91
2022-08-05T11:39:06.380Z,100796.22
2022-08-05T11:42:01.979Z,100793.50
2022-08-05T11:44:41.270Z,100791.66
2022-08-05T11:47:15.285Z,100777.22
2022-08-05T11:49:49.847Z,100788.94
2022-08-05T11:52:29.527Z,100791.47
2022-08-05T11:54:58.945Z,100795.00
2022-08-05T11:57:30.670Z,100787.53
2022-08-05T12:00:25.710Z,100793.78
2022-08-05T12:02:56.598Z,100788.59
2022-08-05T12:05:32.215Z,100797.13
2022-08-05T12:08:10.020Z,100804.69
2022-08-05T12:10:45.783Z,100797.41
2022-08-05T12:13:16.542Z,100797.13
2022-08-05T12:15:49.998Z,100813.41
2022-08-05T12:18:20.571Z,100810.72
2022-08-05T12:20:50.651Z,100811.75
2022-08-05T12:23:17.079Z,100818.19
2022-08-05T12:25:56.482Z,100818.19
2022-08-05T12:28:36.564Z,100821.91
2022-08-05T12:31:04.465Z,100821.06
2022-08-05T12:33:36.565Z,100818.56
2022-08-05T12:36:08.250Z,100814.84
2022-08-05T12:38:40.135Z,100800.22
2022-08-05T12:41:13.530Z,100816.50
2022-08-05T12:43:55.686Z,100818.19
2022-08-05T12:46:33.494Z,100813.63
2022-08-05T12:49:14.603Z,100815.50
2022-08-05T12:52:14.264Z,100823.59
2022-08-05T12:54:36.698Z,100818.19
2022-08-05T12:57:09.234Z,100824.44
2022-08-05T13:01:58.022Z,100811.94
2022-08-05T13:02:37.301Z,100800.94
2022-08-05T13:05:07.172Z,100774.13
2022-08-05T13:07:59.381Z,100803.47
2022-08-05T13:10:20.615Z,100814.06
2022-08-05T13:12:51.000Z,100796.94
2022-08-05T13:15:42.252Z,100810.19
2022-08-05T13:18:18.807Z,100817.25
2022-08-05T13:20:49.320Z,100811.84
2022-08-05T13:23:22.455Z,100811.66
2022-08-05T13:25:59.488Z,100799.16
2022-08-05T13:28:27.992Z,100803.19
2022-08-05T13:30:55.351Z,100811.94
2022-08-05T13:34:23.558Z,100801.97
2022-08-05T13:36:10.312Z,100791.56
2022-08-05T13:38:38.382Z,100798.50
2022-08-05T13:41:10.891Z,100810.16
2022-08-05T13:43:44.682Z,100808.50
2022-08-05T13:46:35.751Z,100811.44
2022-08-05T13:49:10.281Z,100823.75
2022-08-05T13:51:40.184Z,100814.44
2022-08-05T13:54:11.854Z,100819.44
2022-08-05T13:56:39.712Z,100801.88
2022-08-05T13:59:20.396Z,100798.34
2022-08-05T14:01:57.874Z,100817.88
2022-08-05T14:05:11.692Z,100800.06
2022-08-05T14:08:00.249Z,100809.38
2022-08-05T14:10:28.392Z,100820.00
2022-08-05T14:12:56.067Z,100817.94
2022-08-05T14:16:07.160Z,100816.06
2022-08-05T14:18:14.947Z,100777.47
2022-08-05T14:20:47.356Z,100817.53
2022-08-05T14:23:15.368Z,100820.88
2022-08-05T14:25:53.868Z,100814.44
2022-08-05T14:28:26.962Z,100827.78
2022-08-05T14:30:57.895Z,100821.16
2022-08-05T14:33:24.435Z,100823.00
2022-08-05T14:35:53.995Z,100822.63
2022-08-05T14:38:32.267Z,100800.50
2022-08-05T14:41:01.243Z,100829.31
2022-08-05T14:43:57.593Z,100810.25
2022-08-05T14:46:14.396Z,100826.03
2022-08-05T14:48:41.427Z,100827.75
2022-08-05T14:51:08.401Z,100832.13
2022-08-05T14:53:35.091Z,100826.53
2022-08-05T14:56:11.350Z,100838.19
2022-08-05T14:58:38.534Z,100840.69
2022-08-05T15:01:15.951Z,100841.75
2022-08-05T15:03:43.317Z,100849.00
2022-08-05T15:06:14.948Z,100858.97
2022-08-05T15:08:59.390Z,100858.97
2022-08-05T15:11:51.770Z,100852.75
2022-08-05T15:14:33.978Z,100850.88
2022-08-05T15:17:05.069Z,100861.69
2022-08-05T15:19:36.655Z,100858.16
2022-08-05T15:22:05.906Z,100867.09
2022-08-05T15:24:32.579Z,100867.28
2022-08-05T15:26:59.022Z,100862.22
2022-08-05T15:29:29.705Z,100872.00
2022-08-05T15:31:57.677Z,100871.19
2022-08-05T15:34:32.785Z,100867.66
2022-08-05T15:37:06.289Z,100875.94
2022-08-05T15:41:01.464Z,100877.81
2022-08-05T15:42:53.726Z,100880.50
2022-08-05T15:45:06.904Z,100882.38
2022-08-05T15:47:36.128Z,100884.25
2022-08-05T15:50:03.331Z,100891.50
2022-08-05T15:52:52.902Z,100905.91
2022-08-05T15:55:19.256Z,100899.84
2022-08-05T15:57:51.255Z,100902.53
2022-08-05T16:00:26.065Z,100903.56
2022-08-05T16:02:59.463Z,100913.72
2022-08-05T16:05:28.503Z,100918.94
2022-08-05T16:07:55.228Z,100916.25
2022-08-05T16:10:25.587Z,100865.72
2022-08-05T16:12:55.805Z,100916.63
2022-08-05T16:15:23.083Z,100917.81
2022-08-05T16:17:57.762Z,100919.50
2022-08-05T16:20:25.180Z,100916.81
2022-08-05T16:22:51.723Z,100914.09
2022-08-05T16:25:18.538Z,100921.38
2022-08-05T16:27:59.791Z,100899.78
2022-08-05T16:30:29.174Z,100924.28
2022-08-05T16:32:55.869Z,100930.91
2022-08-05T16:35:27.691Z,100932.56
2022-08-05T16:38:15.257Z,100932.75
2022-08-05T16:40:42.597Z,100930.03
2022-08-05T16:43:18.071Z,100939.19
2022-08-05T16:46:03.906Z,100945.44
2022-08-05T16:48:33.953Z,100955.59
2022-08-05T16:51:09.748Z,100930.75
2022-08-05T16:54:05.302Z,100944.69
2022-08-05T16:56:29.169Z,100929.88
2022-08-05T16:58:56.212Z,100942.47
2022-08-05T17:01:24.421Z,100947.03
2022-08-05T17:03:51.877Z,100947.03
2022-08-05T17:06:18.886Z,100931.84
2022-08-05T17:08:52.777Z,100955.50
2022-08-05T17:11:20.187Z,100946.75
2022-08-05T17:13:50.057Z,100958.22
2022-08-05T17:16:32.956Z,100958.22
2022-08-05T17:19:00.612Z,100961.97
2022-08-05T17:21:36.294Z,100944.16
2022-08-05T17:24:19.601Z,100966.72
2022-08-05T17:26:55.669Z,100966.72
2022-08-05T17:29:33.564Z,100965.00
2022-08-05T17:32:11.247Z,100958.78
2022-08-05T17:34:38.846Z,100957.47
2022-08-05T17:37:40.648Z,100969.59
2022-08-05T17:39:55.195Z,100961.66
2022-08-05T17:42:26.980Z,100942.56
2022-08-05T17:44:56.606Z,100967.28
2022-08-05T17:47:23.739Z,100951.53
2022-08-05T17:50:00.334Z,100969.16
2022-08-05T17:52:34.819Z,100952.38
2022-08-05T17:55:21.892Z,100962.03
2022-08-05T17:57:50.049Z,100973.91
2022-08-05T18:00:17.472Z,100952.94
2022-08-05T18:02:46.714Z,100988.41
2022-08-05T18:05:16.755Z,100977.78
2022-08-05T18:07:44.524Z,100956.38
2022-08-05T18:10:20.516Z,100978.66
2022-08-05T18:12:48.834Z,100957.38
2022-08-05T18:15:15.350Z,100966.78
2022-08-05T18:17:59.068Z,100987.31
2022-08-05T18:20:29.662Z,100991.88
2022-08-05T18:23:04.844Z,100994.56
2022-08-05T18:25:36.372Z,100991.75
2022-08-05T18:28:05.601Z,100995.13
2022-08-05T18:30:33.479Z,101004.28
2022-08-05T18:33:01.016Z,100994.47
2022-08-05T18:36:00.142Z,101011.72
2022-08-05T18:38:18.912Z,101017.94
2022-08-05T18:41:57.092Z,101003.78
2022-08-05T18:43:37.932Z,101016.66
2022-08-05T18:46:06.925Z,101024.09
2022-08-05T18:48:36.769Z,101023.41
2022-08-05T18:52:03.179Z,101021.75
2022-08-05T18:54:13.262Z,101028.16
2022-08-05T18:56:40.416Z,101025.81
2022-08-05T18:59:41.843Z,101011.06
2022-08-05T19:01:58.214Z,101030.41
2022-08-05T19:04:25.666Z,101032.22
2022-08-05T19:06:53.553Z,101030.56
2022-08-05T19:09:20.573Z,101035.97
2022-08-05T19:11:59.582Z,101035.31
2022-08-05T19:14:44.717Z,101031.28
2022-08-05T19:17:14.365Z,101041.75
2022-08-05T19:19:46.459Z,101051.69
2022-08-05T19:22:17.379Z,101052.72
2022-08-05T19:24:54.563Z,101068.94
2022-08-05T19:27:23.735Z,101058.13
2022-08-05T19:29:51.805Z,101051.97
2022-08-05T19:32:18.419Z,101059.34
2022-08-05T19:34:54.661Z,101072.84
2022-08-05T19:37:30.112Z,101082.78
2022-08-05T19:40:01.904Z,101087.38
2022-08-05T19:42:36.188Z,101086.53
2022-08-05T19:45:05.887Z,101086.69
2022-08-05T19:47:33.942Z,101087.75
2022-08-05T19:50:01.072Z,101093.13
2022-08-05T19:52:30.925Z,101085.94
2022-08-05T19:54:58.502Z,101096.84
2022-08-05T19:57:49.216Z,101102.44
2022-08-05T20:00:13.971Z,101106.16
2022-08-05T20:02:40.516Z,101118.84
2022-08-05T20:05:09.608Z,101106.69
2022-08-05T20:07:48.276Z,101117.50
2022-08-05T20:10:16.652Z,101125.44
2022-08-05T20:12:47.757Z,101119.06
2022-08-05T20:15:23.048Z,101127.81
2022-08-05T20:18:10.807Z,101130.19
2022-08-05T20:20:56.353Z,101133.88
2022-08-05T20:23:40.449Z,101132.22
2022-08-05T20:26:15.911Z,101137.78
2022-08-05T20:28:45.322Z,101126.88
2022-08-05T20:31:11.925Z,101140.66
2022-08-05T20:33:38.342Z,101146.06
2022-08-05T20:36:09.970Z,101146.06
2022-08-05T20:38:36.705Z,101137.31
2022-08-05T20:41:04.605Z,101150.63
2022-08-05T20:43:59.551Z,101131.97
2022-08-05T20:46:24.917Z,101155.84
2022-08-05T20:48:51.706Z,101152.50
2022-08-05T20:51:18.270Z,101147.78
2022-08-05T20:53:56.240Z,101141.44
2022-08-05T20:56:28.842Z,101168.88
2022-08-05T20:59:04.132Z,101163.84
2022-08-05T21:01:41.356Z,101158.13
2022-08-05T21:04:10.326Z,101163.84
2022-08-05T21:06:37.820Z,101149.72
2022-08-05T21:09:11.904Z,101165.88
2022-08-05T21:12:10.624Z,101172.31
2022-08-05T21:14:27.375Z,101168.75
2022-08-05T21:16:54.925Z,101176.16
2022-08-05T21:19:21.368Z,101174.50
2022-08-05T21:21:50.509Z,101148.41
2022-08-05T21:24:19.569Z,101175.50
2022-08-05T21:26:58.074Z,101170.09
2022-08-05T21:29:31.710Z,101175.88
2022-08-05T21:31:59.315Z,101179.41
2022-08-05T21:34:25.801Z,101183.13
2022-08-05T21:36:54.756Z,101177.91
2022-08-05T21:39:26.951Z,101179.78
2022-08-05T21:42:01.974Z,101175.22
2022-08-05T21:44:30.042Z,101182.63
2022-08-05T21:46:58.277Z,101186.38
2022-08-05T21:49:58.637Z,101193.59
2022-08-05T21:52:27.156Z,101194.47
2022-08-05T21:54:55.975Z,101186.53
2022-08-05T21:57:42.487Z,101198.34
2022-08-05T22:00:11.645Z,101198.34
2022-08-05T22:02:38.855Z,101199.34
2022-08-05T22:05:05.990Z,101194.09
2022-08-05T22:07:54.182Z,101198.66
2022-08-05T22:10:26.669Z,101195.47
2022-08-05T22:12:54.221Z,101187.91
2022-08-05T22:16:02.729Z,101192.78
2022-08-05T22:18:08.687Z,101206.47
2022-08-05T22:20:39.038Z,101199.38
2022-08-05T22:23:25.311Z,101197.69
2022-08-05T22:26:30.331Z,101193.00
2022-08-05T22:28:56.843Z,101190.00
2022-08-05T22:31:24.878Z,101210.69
2022-08-05T22:34:01.314Z,101192.03
2022-08-05T22:36:28.305Z,101210.03
2022-08-05T22:38:55.574Z,101211.88
2022-08-05T22:41:26.177Z,101210.91
2022-08-05T22:44:09.029Z,101215.63
2022-08-05T22:46:39.509Z,101215.63
2022-08-05T22:49:23.642Z,101223.88
2022-08-05T22:52:04.521Z,101231.13
2022-08-05T22:54:35.331Z,101199.47
2022-08-05T22:57:02.838Z,101218.16
2022-08-05T22:59:45.372Z,101226.06
2022-08-05T23:02:29.652Z,101227.09
2022-08-05T23:04:57.918Z,101228.09
2022-08-05T23:07:28.442Z,101232.66
2022-08-05T23:10:01.268Z,101231.16
2022-08-05T23:12:32.421Z,101236.56
2022-08-05T23:15:01.240Z,101226.81
2022-08-05T23:17:34.625Z,101240.44
2022-08-05T23:20:16.635Z,101245.84
2022-08-05T23:22:48.550Z,101244.16
2022-08-05T23:25:51.178Z,101243.47
2022-08-05T23:28:04.055Z,101239.94
2022-08-05T23:30:40.269Z,101246.16
2022-08-05T23:33:21.871Z,101230.50
2022-08-05T23:35:50.026Z,101258.16
2022-08-05T23:38:16.998Z,101255.63
2022-08-05T23:40:49.786Z,101261.88
2022-08-05T23:43:25.010Z,101260.19
2022-08-05T23:46:04.845Z,101250.41
2022-08-05T23:48:47.207Z,101257.66
2022-08-05T23:51:54.238Z,101243.69
2022-08-05T23:54:34.059Z,101258.84
2022-08-05T23:57:04.779Z,101259.88
